Time;durP1;ratioP1;P1;durP2;ratioP2;P2;SDS_P1;SDS_P2;PMS_P1;PMS_P2;Temp;Humidity;BMP_temperature;BMP_pressure;BME280_temperature;BME280_humidity;BME280_pressure;Samples;Min_cycle;Max_cycle;Signal;HPM_P1;HPM_P2
2024/04/19 16:35:51;;;;;;;3.60;2.50;;;4.80;99.90;;;;;;7571239;19;20345;-75
2024/04/19 16:38:25;;;;;;;3.97;2.92;;;4.10;99.90;;;;;;7606650;19;20026;-76
2024/04/19 16:40:56;;;;;;;4.38;3.25;;;4.00;99.90;;;;;;7604440;19;20022;-76
2024/04/19 16:43:28;;;;;;;2.35;2.15;;;4.00;99.90;;;;;;7627281;19;20081;-77
2024/04/19 16:45:59;;;;;;;2.72;2.25;;;4.00;99.90;;;;;;7624525;19;20368;-77
2024/04/19 16:48:30;;;;;;;3.75;2.80;;;4.00;99.90;;;;;;7638929;19;20017;-77
2024/04/19 16:51:02;;;;;;;3.28;2.58;;;4.10;99.90;;;;;;7619919;19;21321;-77
2024/04/19 16:53:33;;;;;;;2.63;2.17;;;4.10;99.90;;;;;;7621911;19;20014;-77
2024/04/19 16:56:05;;;;;;;2.90;2.60;;;4.10;99.90;;;;;;7622372;19;20013;-76
2024/04/19 16:58:36;;;;;;;4.15;2.47;;;4.20;99.90;;;;;;7628105;19;20016;-76
2024/04/19 17:01:07;;;;;;;4.55;2.65;;;4.20;99.90;;;;;;7619752;19;20013;-77
2024/04/19 17:03:38;;;;;;;4.63;2.38;;;4.20;99.90;;;;;;7626038;19;20021;-76
2024/04/19 17:06:10;;;;;;;3.20;2.55;;;4.20;99.90;;;;;;7637757;19;20048;-77
2024/04/19 17:08:42;;;;;;;2.80;1.63;;;4.10;99.90;;;;;;7631590;19;20014;-76
2024/04/19 17:11:13;;;;;;;15.35;8.15;;;4.20;99.90;;;;;;7627898;19;20094;-76
2024/04/19 17:13:45;;;;;;;6.97;3.00;;;4.20;99.90;;;;;;7621765;19;20018;-76
2024/04/19 17:16:18;;;;;;;4.35;2.65;;;4.10;99.90;;;;;;7615905;19;20081;-77
2024/04/19 17:18:50;;;;;;;5.10;3.00;;;4.20;99.90;;;;;;7663383;19;20490;-82
2024/04/19 17:21:22;;;;;;;3.55;2.05;;;4.20;99.90;;;;;;7656300;19;20014;-80
2024/04/19 17:23:53;;;;;;;3.08;2.05;;;4.20;99.90;;;;;;7646698;19;20816;-78
2024/04/19 17:26:24;;;;;;;2.75;2.22;;;4.20;99.90;;;;;;7652427;19;20029;-81
2024/04/19 17:28:56;;;;;;;4.60;2.30;;;4.20;99.90;;;;;;7665840;19;20271;-81
2024/04/19 17:31:27;;;;;;;3.35;2.15;;;4.20;99.90;;;;;;7671401;19;20044;-81
2024/04/19 17:33:59;;;;;;;2.72;2.53;;;4.20;99.90;;;;;;7660662;19;20021;-79
2024/04/19 17:36:31;;;;;;;3.75;2.42;;;4.20;99.90;;;;;;7658187;19;20018;-81
2024/04/19 17:39:02;;;;;;;5.05;2.95;;;4.20;99.90;;;;;;7657847;19;20040;-81
2024/04/19 17:41:34;;;;;;;3.72;2.90;;;4.20;99.90;;;;;;7668525;19;20010;-82
2024/04/19 17:44:05;;;;;;;3.80;2.67;;;4.20;99.90;;;;;;7660747;19;20014;-81
2024/04/19 17:46:37;;;;;;;3.83;2.38;;;4.30;99.90;;;;;;7627683;19;20014;-82
2024/04/19 17:49:09;;;;;;;2.17;1.90;;;4.30;99.90;;;;;;7623885;19;20010;-80
2024/04/19 17:51:40;;;;;;;1.95;1.70;;;4.30;99.90;;;;;;7629551;19;20025;-81
2024/04/19 17:54:12;;;;;;;3.33;2.28;;;4.30;99.90;;;;;;7627247;19;20031;-82
2024/04/19 17:56:43;;;;;;;3.17;2.17;;;4.30;99.90;;;;;;7628835;19;20067;-81
2024/04/19 17:59:14;;;;;;;2.00;1.80;;;4.30;99.90;;;;;;7634860;19;20018;-82
2024/04/19 18:01:46;;;;;;;2.42;1.70;;;4.30;99.90;;;;;;7632461;19;20093;-80
2024/04/19 18:04:17;;;;;;;2.80;1.80;;;4.30;99.90;;;;;;7627598;19;20123;-82
2024/04/19 18:06:48;;;;;;;2.35;1.58;;;4.30;99.90;;;;;;7634820;19;20025;-84
2024/04/19 18:09:19;;;;;;;2.10;1.35;;;4.30;99.90;;;;;;7637546;19;20492;-79
2024/04/19 18:11:51;;;;;;;2.70;1.65;;;4.20;99.90;;;;;;7629482;19;20046;-82
2024/04/19 18:14:23;;;;;;;2.28;1.83;;;4.20;99.90;;;;;;7634357;19;20014;-81
2024/04/19 18:16:56;;;;;;;5.30;2.00;;;4.20;99.90;;;;;;7640703;19;20051;-81
2024/04/19 18:19:27;;;;;;;;;;;4.10;99.90;;;;;;7639005;19;20019;-82
2024/04/19 18:22:00;;;;;;;3.30;2.00;;;4.00;99.90;;;;;;7628463;19;19922;-83
2024/04/19 18:24:32;;;;;;;3.45;2.42;;;4.00;99.90;;;;;;7637035;19;20012;-82
2024/04/19 18:27:03;;;;;;;2.38;2.05;;;4.00;99.90;;;;;;7636903;19;20665;-82
2024/04/19 18:29:34;;;;;;;3.80;2.70;;;4.00;99.90;;;;;;7646730;19;20022;-83
2024/04/19 18:32:06;;;;;;;7.38;3.35;;;3.90;99.90;;;;;;7636229;19;20010;-82
2024/04/19 18:34:37;;;;;;;3.83;2.75;;;3.90;99.90;;;;;;7627776;19;20017;-84
2024/04/19 18:37:09;;;;;;;4.28;2.95;;;3.90;99.90;;;;;;7632438;19;20019;-83
2024/04/19 18:39:41;;;;;;;5.00;2.83;;;3.90;99.90;;;;;;7627001;19;20022;-84
2024/04/19 18:42:12;;;;;;;4.05;3.00;;;3.90;99.90;;;;;;7629959;19;20686;-84
2024/04/19 18:44:44;;;;;;;2.85;2.28;;;4.00;99.90;;;;;;7625710;19;20114;-84
2024/04/19 18:47:15;;;;;;;3.80;2.70;;;4.00;99.90;;;;;;7621032;19;20017;-85
2024/04/19 18:49:47;;;;;;;3.92;3.10;;;4.00;99.90;;;;;;7626604;19;20051;-81
2024/04/19 18:52:19;;;;;;;2.75;2.38;;;4.00;99.90;;;;;;7629177;19;20043;-84
2024/04/19 18:54:50;;;;;;;2.65;2.03;;;4.00;99.90;;;;;;7621984;19;20022;-85
2024/04/19 18:57:21;;;;;;;2.95;2.50;;;4.10;99.90;;;;;;7618735;19;20011;-84
2024/04/19 18:59:53;;;;;;;2.80;2.33;;;4.10;99.90;;;;;;7602796;19;20044;-83
2024/04/19 19:02:24;;;;;;;4.72;3.10;;;4.10;99.90;;;;;;7606637;19;20046;-82
2024/04/19 19:04:56;;;;;;;4.22;3.13;;;4.20;99.90;;;;;;7611388;19;20018;-82
2024/04/19 19:07:28;;;;;;;3.35;3.00;;;4.20;99.90;;;;;;7608572;19;20019;-83
2024/04/19 19:09:59;;;;;;;3.42;2.47;;;4.20;99.90;;;;;;7604834;19;20014;-81
2024/04/19 19:12:34;;;;;;;2.97;2.20;;;4.30;99.90;;;;;;7609438;19;20022;-82
2024/04/19 19:15:06;;;;;;;2.17;1.92;;;4.30;99.90;;;;;;7604194;19;20555;-82
2024/04/19 19:17:37;;;;;;;2.58;1.98;;;4.30;99.90;;;;;;7608408;19;20299;-81
2024/04/19 19:20:14;;;;;;;3.50;2.33;;;4.40;99.90;;;;;;7611912;19;20035;-81
2024/04/19 19:22:45;;;;;;;2.38;2.17;;;4.40;99.90;;;;;;7608024;19;20006;-81
2024/04/19 19:25:17;;;;;;;2.72;2.00;;;4.40;99.90;;;;;;7586971;19;20007;-82
2024/04/19 19:27:48;;;;;;;2.53;1.77;;;4.40;99.90;;;;;;7590350;19;20029;-81
2024/04/19 19:30:20;;;;;;;1.77;1.23;;;4.50;99.90;;;;;;7588097;19;20014;-81
2024/04/19 19:32:52;;;;;;;2.42;2.03;;;4.50;99.90;;;;;;7586961;19;20047;-80
2024/04/19 19:35:23;;;;;;;2.47;1.90;;;4.60;99.90;;;;;;7598997;19;20021;-82
2024/04/19 19:37:55;;;;;;;2.08;1.88;;;4.50;99.90;;;;;;7592689;19;20897;-82
2024/04/19 19:40:30;;;;;;;2.33;1.77;;;4.60;99.90;;;;;;7607894;19;20025;-79
2024/04/19 19:43:02;;;;;;;2.75;1.77;;;4.60;99.90;;;;;;7615220;19;20010;-81
2024/04/19 19:45:34;;;;;;;2.00;1.80;;;4.60;99.90;;;;;;7602487;19;20015;-81
2024/04/19 19:48:06;;;;;;;3.90;2.42;;;4.60;99.90;;;;;;7593658;19;20022;-81
2024/04/19 19:50:37;;;;;;;2.88;2.58;;;4.60;99.90;;;;;;7598280;19;20051;-79
2024/04/19 19:53:08;;;;;;;7.82;4.32;;;4.60;99.90;;;;;;7601036;19;20413;-81
2024/04/19 19:55:40;;;;;;;3.15;2.67;;;4.60;99.90;;;;;;7597910;19;20355;-82
2024/04/19 19:58:11;;;;;;;2.22;1.90;;;4.70;99.90;;;;;;7611815;19;20015;-82
2024/04/19 20:06:23;;;;;;;4.85;1.88;;;4.70;99.90;;;;;;7607064;19;20018;-84
2024/04/19 20:08:55;;;;;;;2.47;1.92;;;4.70;99.90;;;;;;7599936;19;20455;-81
2024/04/19 20:11:26;;;;;;;2.22;1.90;;;4.70;99.90;;;;;;7595335;19;20073;-80
2024/04/19 20:13:58;;;;;;;3.75;2.30;;;4.70;99.90;;;;;;7598370;19;20018;-81
2024/04/19 20:16:29;;;;;;;2.92;1.85;;;4.70;99.90;;;;;;7586501;19;20051;-82
2024/04/19 20:19:01;;;;;;;2.20;2.00;;;4.80;99.90;;;;;;7605338;19;20015;-83
2024/04/19 20:21:33;;;;;;;2.83;2.10;;;4.70;99.90;;;;;;7595901;19;20394;-81
2024/04/19 20:24:04;;;;;;;4.53;2.00;;;4.80;99.90;;;;;;7602718;19;20035;-81
2024/04/19 20:26:35;;;;;;;2.50;2.17;;;4.80;99.90;;;;;;7592088;19;20010;-82
2024/04/19 20:29:13;;;;;;;3.22;2.22;;;4.80;99.90;;;;;;7586778;19;20061;-82
2024/04/19 20:31:46;;;;;;;2.38;1.92;;;4.90;99.90;;;;;;7596590;19;20018;-81
2024/04/19 20:34:17;;;;;;;3.28;2.10;;;4.80;99.90;;;;;;7600444;19;20018;-79
2024/04/19 20:36:49;;;;;;;2.63;1.95;;;4.90;99.90;;;;;;7595158;19;21128;-81
2024/04/19 20:39:20;;;;;;;2.55;2.08;;;4.90;99.90;;;;;;7602281;19;20634;-82
2024/04/19 20:41:51;;;;;;;2.53;2.03;;;4.90;99.90;;;;;;7596710;19;20161;-81
2024/04/19 20:44:23;;;;;;;2.63;2.20;;;4.90;99.90;;;;;;7590698;19;20017;-81
2024/04/19 20:46:54;;;;;;;3.15;2.13;;;4.90;99.90;;;;;;7585470;19;20047;-82
2024/04/19 20:49:25;;;;;;;5.47;2.42;;;4.90;99.90;;;;;;7591095;19;20025;-82
2024/04/19 20:51:57;;;;;;;4.10;2.40;;;4.90;99.90;;;;;;7590467;19;20035;-81
2024/04/19 20:54:28;;;;;;;2.78;2.28;;;4.90;99.90;;;;;;7600379;19;20094;-81
2024/04/19 20:57:01;;;;;;;3.25;2.00;;;4.90;99.90;;;;;;7596730;19;20018;-82
2024/04/19 20:59:32;;;;;;;;;;;4.80;99.90;;;;;;7598637;19;20016;-81
2024/04/19 21:02:03;;;;;;;3.50;2.38;;;4.80;99.90;;;;;;7591307;19;20416;-81
2024/04/19 21:04:35;;;;;;;2.90;2.28;;;4.70;99.90;;;;;;7598356;19;20018;-82
2024/04/19 21:07:06;;;;;;;5.05;3.38;;;4.70;99.90;;;;;;7602928;19;20031;-81
2024/04/19 21:09:38;;;;;;;3.70;2.25;;;4.70;99.90;;;;;;7610690;19;20053;-81
2024/04/19 21:12:09;;;;;;;4.00;2.35;;;4.70;99.90;;;;;;7595389;19;20578;-82
2024/04/19 21:14:40;;;;;;;2.45;1.92;;;4.70;99.90;;;;;;7594196;19;20021;-80
2024/04/19 21:17:11;;;;;;;3.17;1.80;;;4.70;99.90;;;;;;7606377;19;20029;-82
2024/04/19 21:19:42;;;;;;;3.33;2.28;;;4.70;99.90;;;;;;7582106;19;20015;-81
2024/04/19 21:22:17;;;;;;;3.42;2.25;;;4.60;99.90;;;;;;7614953;19;20485;-83
2024/04/19 21:24:50;;;;;;;2.85;1.85;;;4.70;99.90;;;;;;7604579;19;20025;-82
2024/04/19 21:27:21;;;;;;;2.70;2.10;;;4.60;99.90;;;;;;7613659;19;20254;-82
2024/04/19 21:29:52;;;;;;;3.20;2.33;;;4.60;99.90;;;;;;7616540;19;20047;-80
2024/04/19 21:32:24;;;;;;;2.90;2.40;;;4.60;99.90;;;;;;7611082;19;20093;-80
2024/04/19 21:34:55;;;;;;;2.63;2.15;;;4.70;99.90;;;;;;7604217;19;20026;-82
2024/04/19 21:37:26;;;;;;;3.03;2.38;;;4.60;99.90;;;;;;7616506;19;20014;-82
2024/04/19 21:39:57;;;;;;;3.53;2.50;;;4.60;99.90;;;;;;7620625;19;20022;-81
2024/04/19 21:42:28;;;;;;;4.50;2.58;;;4.70;99.90;;;;;;7604257;19;20014;-82
2024/04/19 21:44:59;;;;;;;2.80;2.38;;;4.60;99.90;;;;;;7611728;19;20054;-81
2024/04/19 21:47:31;;;;;;;2.73;2.20;;;4.50;99.90;;;;;;6588821;19;10000291;-82
2024/04/19 21:50:02;;;;;;;3.63;2.35;;;4.50;99.90;;;;;;7612128;19;20294;-80
2024/04/19 21:52:33;;;;;;;3.67;2.28;;;4.50;99.90;;;;;;7612774;19;20015;-80
2024/04/19 21:55:04;;;;;;;3.60;2.75;;;4.50;99.90;;;;;;7602780;19;20077;-79
2024/04/19 21:57:35;;;;;;;2.47;2.08;;;4.50;99.90;;;;;;7614327;19;20014;-82
2024/04/19 22:00:07;;;;;;;2.97;2.25;;;4.50;99.90;;;;;;7610654;19;21095;-81
2024/04/19 22:02:38;;;;;;;2.50;2.20;;;4.50;99.90;;;;;;7619453;19;20033;-82
2024/04/19 22:05:10;;;;;;;2.20;2.00;;;4.60;99.90;;;;;;7624842;19;20047;-81
2024/04/19 22:07:40;;;;;;;3.42;2.38;;;4.50;99.90;;;;;;7614261;19;20587;-81
2024/04/19 22:10:12;;;;;;;3.13;2.40;;;4.50;99.90;;;;;;7617802;19;20023;-81
2024/04/19 22:12:43;;;;;;;6.85;4.10;;;4.50;99.90;;;;;;7625558;19;20113;-81
2024/04/19 22:15:15;;;;;;;3.80;2.38;;;4.50;99.90;;;;;;7617864;19;20034;-81
2024/04/19 22:17:46;;;;;;;3.97;2.75;;;4.50;99.90;;;;;;7625833;19;20027;-81
2024/04/19 22:20:17;;;;;;;2.33;2.13;;;4.50;99.90;;;;;;7628949;19;20019;-80
2024/04/19 22:22:49;;;;;;;2.30;1.77;;;4.50;99.90;;;;;;7623973;19;20229;-81
2024/04/19 22:25:20;;;;;;;3.78;2.47;;;4.50;99.90;;;;;;7632421;19;20048;-81
2024/04/19 22:27:51;;;;;;;2.80;2.10;;;4.50;99.90;;;;;;7631692;19;20030;-81
2024/04/19 22:30:23;;;;;;;2.03;1.75;;;4.50;99.90;;;;;;7630796;19;20461;-81
2024/04/19 22:32:54;;;;;;;2.10;1.70;;;4.50;99.90;;;;;;7630274;19;20089;-80
2024/04/19 22:35:25;;;;;;;2.08;1.70;;;4.50;99.90;;;;;;7633798;19;20019;-82
2024/04/19 22:37:56;;;;;;;2.47;1.83;;;4.50;99.90;;;;;;7636585;19;20046;-81
2024/04/19 22:40:27;;;;;;;1.50;1.40;;;4.50;99.90;;;;;;7639237;19;20514;-82
2024/04/19 22:42:59;;;;;;;1.75;1.48;;;4.60;99.90;;;;;;7642152;19;20702;-81
2024/04/19 22:45:30;;;;;;;2.20;1.50;;;4.50;99.90;;;;;;7642158;19;20047;-81
2024/04/19 22:48:01;;;;;;;1.90;1.73;;;4.50;99.90;;;;;;7650008;19;20022;-80
2024/04/19 22:50:33;;;;;;;2.33;1.95;;;4.50;99.90;;;;;;7647323;19;20018;-81
2024/04/19 22:53:04;;;;;;;4.10;1.83;;;4.50;99.90;;;;;;7648703;19;20051;-81
2024/04/19 22:55:36;;;;;;;3.50;1.77;;;4.50;99.90;;;;;;7636566;19;20076;-81
2024/04/19 22:58:07;;;;;;;3.63;2.03;;;4.50;99.90;;;;;;7642090;19;20039;-82
2024/04/19 23:00:38;;;;;;;5.32;2.25;;;4.50;99.90;;;;;;7653401;19;20634;-81
2024/04/19 23:03:10;;;;;;;2.75;2.13;;;4.50;99.90;;;;;;7622073;19;20147;-81
2024/04/19 23:05:41;;;;;;;2.25;1.95;;;4.50;99.90;;;;;;7613856;19;20840;-80
2024/04/19 23:08:12;;;;;;;5.47;1.95;;;4.50;99.90;;;;;;7613139;19;20086;-82
2024/04/19 23:10:43;;;;;;;2.65;2.08;;;4.50;99.90;;;;;;7615126;19;20817;-81
2024/04/19 23:13:14;;;;;;;4.45;2.20;;;4.50;99.90;;;;;;7614078;19;20030;-81
2024/04/19 23:15:45;;;;;;;2.35;2.08;;;4.60;99.90;;;;;;7612346;19;20030;-81
2024/04/19 23:18:16;;;;;;;8.98;2.42;;;4.50;99.90;;;;;;7616426;19;20025;-81
2024/04/19 23:20:58;;;;;;;3.13;2.40;;;4.60;99.90;;;;;;7626536;19;22055;-79
2024/04/19 23:23:31;;;;;;;4.13;2.15;;;4.50;99.90;;;;;;7584678;19;20022;-79
2024/04/19 23:26:11;;;;;;;2.38;2.10;;;4.60;99.90;;;;;;7596503;19;20040;-79
2024/04/19 23:28:42;;;;;;;6.72;2.72;;;4.50;99.90;;;;;;7593882;19;20014;-77
2024/04/19 23:31:13;;;;;;;3.95;2.30;;;4.50;99.90;;;;;;7591469;19;20014;-78
2024/04/19 23:33:44;;;;;;;7.35;2.45;;;4.50;99.90;;;;;;7582943;19;20575;-78
2024/04/19 23:36:15;;;;;;;5.85;2.60;;;4.50;99.90;;;;;;7578621;19;20014;-78
2024/04/19 23:38:46;;;;;;;3.58;2.30;;;4.50;99.90;;;;;;7590676;19;21760;-77
2024/04/19 23:41:17;;;;;;;6.05;2.50;;;4.50;99.90;;;;;;7595895;19;20015;-77
2024/04/19 23:43:48;;;;;;;2.67;2.13;;;4.50;99.90;;;;;;7582051;19;20035;-77
2024/04/19 23:46:19;;;;;;;3.70;2.53;;;4.40;99.90;;;;;;7576925;19;20652;-78
2024/04/19 23:48:50;;;;;;;3.90;2.90;;;4.40;99.90;;;;;;7600800;19;20014;-79
2024/04/19 23:51:21;;;;;;;7.45;2.85;;;4.40;99.90;;;;;;7598923;19;20027;-79
2024/04/19 23:53:52;;;;;;;4.22;3.00;;;4.30;99.90;;;;;;7596391;19;20018;-80
2024/04/19 23:56:24;;;;;;;4.78;3.55;;;4.30;99.90;;;;;;7594546;19;20047;-78
2024/04/19 23:58:55;;;;;;;8.73;3.47;;;4.30;99.90;;;;;;7600175;19;20022;-79
